sensor_id;sensor_type;location;lat;lon;timestamp;P1;durP1;ratioP1;P2;durP2;ratioP2
23171;SDS011;11754;42.664;23.594;2023-04-15T00:00:23;8.38;;;4.32;;
23171;SDS011;11754;42.664;23.594;2023-04-15T00:02:49;9.15;;;3.83;;
23171;SDS011;11754;42.664;23.594;2023-04-15T00:05:15;13.45;;;6.30;;
23171;SDS011;11754;42.664;23.594;2023-04-15T00:07:40;11.90;;;5.15;;
23171;SDS011;11754;42.664;23.594;2023-04-15T00:10:06;7.82;;;4.15;;
23171;SDS011;11754;42.664;23.594;2023-04-15T00:12:32;6.97;;;3.90;;
23171;SDS011;11754;42.664;23.594;2023-04-15T00:14:57;6.80;;;3.28;;
23171;SDS011;11754;42.664;23.594;2023-04-15T00:17:23;6.05;;;2.70;;
23171;SDS011;11754;42.664;23.594;2023-04-15T00:19:48;5.35;;;2.70;;
23171;SDS011;11754;42.664;23.594;2023-04-15T00:22:14;6.07;;;2.90;;
23171;SDS011;11754;42.664;23.594;2023-04-15T00:24:40;10.27;;;3.92;;
23171;SDS011;11754;42.664;23.594;2023-04-15T00:27:05;8.55;;;4.78;;
23171;SDS011;11754;42.664;23.594;2023-04-15T00:29:31;9.45;;;5.75;;
23171;SDS011;11754;42.664;23.594;2023-04-15T00:31:57;8.30;;;4.75;;
23171;SDS011;11754;42.664;23.594;2023-04-15T00:34:22;14.15;;;6.70;;
23171;SDS011;11754;42.664;23.594;2023-04-15T00:36:49;21.10;;;11.85;;
23171;SDS011;11754;42.664;23.594;2023-04-15T00:39:15;36.30;;;19.05;;
23171;SDS011;11754;42.664;23.594;2023-04-15T00:41:41;15.45;;;8.48;;
23171;SDS011;11754;42.664;23.594;2023-04-15T00:44:08;16.75;;;8.85;;
23171;SDS011;11754;42.664;23.594;2023-04-15T00:46:35;17.42;;;9.90;;
23171;SDS011;11754;42.664;23.594;2023-04-15T00:49:04;14.30;;;7.45;;
23171;SDS011;11754;42.664;23.594;2023-04-15T00:51:31;18.70;;;9.38;;
23171;SDS011;11754;42.664;23.594;2023-04-15T00:53:57;12.05;;;5.75;;
23171;SDS011;11754;42.664;23.594;2023-04-15T00:56:24;15.48;;;6.18;;
23171;SDS011;11754;42.664;23.594;2023-04-15T00:58:51;10.50;;;5.93;;
23171;SDS011;11754;42.664;23.594;2023-04-15T01:01:20;11.40;;;5.20;;
23171;SDS011;11754;42.664;23.594;2023-04-15T01:03:47;11.23;;;6.10;;
23171;SDS011;11754;42.664;23.594;2023-04-15T01:06:14;10.57;;;5.90;;
23171;SDS011;11754;42.664;23.594;2023-04-15T01:08:40;9.20;;;4.75;;
23171;SDS011;11754;42.664;23.594;2023-04-15T01:11:06;6.90;;;4.55;;
23171;SDS011;11754;42.664;23.594;2023-04-15T01:13:32;8.05;;;4.80;;
23171;SDS011;11754;42.664;23.594;2023-04-15T01:15:58;10.25;;;6.00;;
23171;SDS011;11754;42.664;23.594;2023-04-15T01:18:24;10.82;;;5.20;;
23171;SDS011;11754;42.664;23.594;2023-04-15T01:20:50;8.60;;;4.78;;
23171;SDS011;11754;42.664;23.594;2023-04-15T01:23:16;8.25;;;4.72;;
23171;SDS011;11754;42.664;23.594;2023-04-15T01:25:42;8.75;;;4.85;;
23171;SDS011;11754;42.664;23.594;2023-04-15T01:28:08;8.40;;;4.82;;
23171;SDS011;11754;42.664;23.594;2023-04-15T01:30:34;8.68;;;5.40;;
23171;SDS011;11754;42.664;23.594;2023-04-15T01:33:00;9.15;;;4.68;;
23171;SDS011;11754;42.664;23.594;2023-04-15T01:35:26;6.80;;;3.88;;
23171;SDS011;11754;42.664;23.594;2023-04-15T01:37:52;7.35;;;3.50;;
23171;SDS011;11754;42.664;23.594;2023-04-15T01:40:19;9.63;;;4.78;;
23171;SDS011;11754;42.664;23.594;2023-04-15T01:42:45;11.30;;;4.88;;
23171;SDS011;11754;42.664;23.594;2023-04-15T01:45:11;6.95;;;4.05;;
23171;SDS011;11754;42.664;23.594;2023-04-15T01:47:38;9.98;;;5.10;;
23171;SDS011;11754;42.664;23.594;2023-04-15T01:50:03;11.75;;;5.95;;
23171;SDS011;11754;42.664;23.594;2023-04-15T01:52:29;9.55;;;4.35;;
23171;SDS011;11754;42.664;23.594;2023-04-15T01:54:56;10.48;;;4.38;;
23171;SDS011;11754;42.664;23.594;2023-04-15T01:57:21;10.38;;;4.43;;
23171;SDS011;11754;42.664;23.594;2023-04-15T01:59:46;9.65;;;4.93;;
23171;SDS011;11754;42.664;23.594;2023-04-15T02:02:12;10.25;;;4.70;;
23171;SDS011;11754;42.664;23.594;2023-04-15T02:04:37;7.38;;;3.85;;
23171;SDS011;11754;42.664;23.594;2023-04-15T02:07:03;7.72;;;3.92;;
23171;SDS011;11754;42.664;23.594;2023-04-15T02:09:28;7.10;;;4.00;;
23171;SDS011;11754;42.664;23.594;2023-04-15T02:11:54;9.07;;;3.50;;
23171;SDS011;11754;42.664;23.594;2023-04-15T02:14:20;5.32;;;3.33;;
23171;SDS011;11754;42.664;23.594;2023-04-15T02:16:46;8.55;;;3.28;;
23171;SDS011;11754;42.664;23.594;2023-04-15T02:19:11;7.00;;;3.28;;
23171;SDS011;11754;42.664;23.594;2023-04-15T02:21:37;6.57;;;3.35;;
23171;SDS011;11754;42.664;23.594;2023-04-15T02:24:03;4.90;;;2.90;;
23171;SDS011;11754;42.664;23.594;2023-04-15T02:26:29;5.20;;;2.60;;
23171;SDS011;11754;42.664;23.594;2023-04-15T02:28:57;5.80;;;3.20;;
23171;SDS011;11754;42.664;23.594;2023-04-15T02:31:22;7.72;;;2.90;;
23171;SDS011;11754;42.664;23.594;2023-04-15T02:33:48;6.95;;;3.25;;
23171;SDS011;11754;42.664;23.594;2023-04-15T02:36:14;5.38;;;3.08;;
23171;SDS011;11754;42.664;23.594;2023-04-15T02:38:39;4.93;;;2.83;;
23171;SDS011;11754;42.664;23.594;2023-04-15T02:41:07;70.57;;;29.85;;
23171;SDS011;11754;42.664;23.594;2023-04-15T02:43:34;11.88;;;5.93;;
23171;SDS011;11754;42.664;23.594;2023-04-15T02:45:59;5.32;;;3.30;;
23171;SDS011;11754;42.664;23.594;2023-04-15T02:48:25;8.00;;;4.10;;
23171;SDS011;11754;42.664;23.594;2023-04-15T02:50:51;7.13;;;3.10;;
23171;SDS011;11754;42.664;23.594;2023-04-15T02:53:16;5.95;;;3.15;;
23171;SDS011;11754;42.664;23.594;2023-04-15T02:55:41;7.75;;;3.72;;
23171;SDS011;11754;42.664;23.594;2023-04-15T02:58:07;7.28;;;3.90;;
23171;SDS011;11754;42.664;23.594;2023-04-15T03:00:32;6.53;;;2.85;;
23171;SDS011;11754;42.664;23.594;2023-04-15T03:03:00;5.55;;;2.78;;
23171;SDS011;11754;42.664;23.594;2023-04-15T03:05:27;6.60;;;3.00;;
23171;SDS011;11754;42.664;23.594;2023-04-15T03:07:52;7.30;;;2.80;;
23171;SDS011;11754;42.664;23.594;2023-04-15T03:10:18;5.30;;;2.67;;
23171;SDS011;11754;42.664;23.594;2023-04-15T03:12:44;6.30;;;3.40;;
23171;SDS011;11754;42.664;23.594;2023-04-15T03:15:10;7.57;;;3.78;;
23171;SDS011;11754;42.664;23.594;2023-04-15T03:17:35;8.82;;;3.50;;
23171;SDS011;11754;42.664;23.594;2023-04-15T03:20:01;6.50;;;3.58;;
23171;SDS011;11754;42.664;23.594;2023-04-15T03:22:29;8.23;;;3.42;;
23171;SDS011;11754;42.664;23.594;2023-04-15T03:24:55;8.02;;;3.80;;
23171;SDS011;11754;42.664;23.594;2023-04-15T03:27:20;8.82;;;4.03;;
23171;SDS011;11754;42.664;23.594;2023-04-15T03:29:46;6.85;;;4.20;;
23171;SDS011;11754;42.664;23.594;2023-04-15T03:32:11;9.98;;;4.28;;
23171;SDS011;11754;42.664;23.594;2023-04-15T03:34:39;9.00;;;4.47;;
23171;SDS011;11754;42.664;23.594;2023-04-15T03:37:05;8.82;;;5.10;;
23171;SDS011;11754;42.664;23.594;2023-04-15T03:39:30;10.30;;;4.97;;
23171;SDS011;11754;42.664;23.594;2023-04-15T03:41:56;9.50;;;4.78;;
23171;SDS011;11754;42.664;23.594;2023-04-15T03:44:23;11.15;;;5.18;;
23171;SDS011;11754;42.664;23.594;2023-04-15T03:46:48;9.55;;;4.88;;
23171;SDS011;11754;42.664;23.594;2023-04-15T03:49:14;11.27;;;4.93;;
23171;SDS011;11754;42.664;23.594;2023-04-15T03:51:39;8.13;;;4.70;;
23171;SDS011;11754;42.664;23.594;2023-04-15T03:54:05;8.35;;;4.50;;
23171;SDS011;11754;42.664;23.594;2023-04-15T03:56:30;8.55;;;4.00;;
23171;SDS011;11754;42.664;23.594;2023-04-15T03:58:56;6.82;;;3.25;;
23171;SDS011;11754;42.664;23.594;2023-04-15T04:01:21;8.73;;;3.75;;
23171;SDS011;11754;42.664;23.594;2023-04-15T04:03:47;7.55;;;3.50;;
23171;SDS011;11754;42.664;23.594;2023-04-15T04:06:12;5.72;;;3.45;;
23171;SDS011;11754;42.664;23.594;2023-04-15T04:08:39;11.35;;;4.15;;
23171;SDS011;11754;42.664;23.594;2023-04-15T04:11:05;8.88;;;4.18;;
23171;SDS011;11754;42.664;23.594;2023-04-15T04:13:31;8.70;;;5.45;;
23171;SDS011;11754;42.664;23.594;2023-04-15T04:15:56;7.95;;;5.32;;
23171;SDS011;11754;42.664;23.594;2023-04-15T04:18:22;8.27;;;4.50;;
23171;SDS011;11754;42.664;23.594;2023-04-15T04:20:47;7.22;;;4.03;;
23171;SDS011;11754;42.664;23.594;2023-04-15T04:23:13;9.70;;;4.13;;
23171;SDS011;11754;42.664;23.594;2023-04-15T04:25:38;9.40;;;4.95;;
23171;SDS011;11754;42.664;23.594;2023-04-15T04:28:03;10.93;;;5.22;;
23171;SDS011;11754;42.664;23.594;2023-04-15T04:30:29;14.80;;;4.10;;
23171;SDS011;11754;42.664;23.594;2023-04-15T04:32:54;14.75;;;8.57;;
23171;SDS011;11754;42.664;23.594;2023-04-15T04:35:20;33.72;;;16.80;;
23171;SDS011;11754;42.664;23.594;2023-04-15T04:37:46;23.83;;;12.93;;
23171;SDS011;11754;42.664;23.594;2023-04-15T04:40:11;16.58;;;9.50;;
23171;SDS011;11754;42.664;23.594;2023-04-15T04:42:37;25.08;;;12.25;;
23171;SDS011;11754;42.664;23.594;2023-04-15T04:45:03;22.75;;;12.02;;
23171;SDS011;11754;42.664;23.594;2023-04-15T04:47:28;9.77;;;5.63;;
23171;SDS011;11754;42.664;23.594;2023-04-15T04:49:56;12.68;;;5.97;;
23171;SDS011;11754;42.664;23.594;2023-04-15T04:52:22;14.27;;;5.78;;
23171;SDS011;11754;42.664;23.594;2023-04-15T04:54:47;18.95;;;8.63;;
23171;SDS011;11754;42.664;23.594;2023-04-15T04:57:13;37.33;;;19.27;;
23171;SDS011;11754;42.664;23.594;2023-04-15T04:59:38;28.85;;;16.98;;
23171;SDS011;11754;42.664;23.594;2023-04-15T05:02:04;33.72;;;18.25;;
23171;SDS011;11754;42.664;23.594;2023-04-15T05:04:29;34.25;;;16.35;;
23171;SDS011;11754;42.664;23.594;2023-04-15T05:06:56;30.50;;;15.90;;
23171;SDS011;11754;42.664;23.594;2023-04-15T05:09:22;26.10;;;14.90;;
23171;SDS011;11754;42.664;23.594;2023-04-15T05:11:47;34.33;;;18.13;;
23171;SDS011;11754;42.664;23.594;2023-04-15T05:14:12;25.60;;;12.85;;
23171;SDS011;11754;42.664;23.594;2023-04-15T05:16:38;27.15;;;14.35;;
23171;SDS011;11754;42.664;23.594;2023-04-15T05:19:03;24.92;;;12.18;;
23171;SDS011;11754;42.664;23.594;2023-04-15T05:21:28;15.82;;;9.18;;
23171;SDS011;11754;42.664;23.594;2023-04-15T05:23:55;23.95;;;9.77;;
23171;SDS011;11754;42.664;23.594;2023-04-15T05:26:20;13.98;;;7.25;;
23171;SDS011;11754;42.664;23.594;2023-04-15T05:28:46;13.20;;;7.20;;
23171;SDS011;11754;42.664;23.594;2023-04-15T05:31:11;17.17;;;6.38;;
23171;SDS011;11754;42.664;23.594;2023-04-15T05:33:37;13.02;;;7.07;;
23171;SDS011;11754;42.664;23.594;2023-04-15T05:36:02;14.48;;;6.13;;
23171;SDS011;11754;42.664;23.594;2023-04-15T05:38:28;10.52;;;5.90;;
23171;SDS011;11754;42.664;23.594;2023-04-15T05:40:53;12.60;;;6.30;;
23171;SDS011;11754;42.664;23.594;2023-04-15T05:43:19;9.18;;;5.70;;
23171;SDS011;11754;42.664;23.594;2023-04-15T05:45:44;10.10;;;5.00;;
23171;SDS011;11754;42.664;23.594;2023-04-15T05:48:10;9.35;;;5.00;;
23171;SDS011;11754;42.664;23.594;2023-04-15T05:50:35;9.45;;;5.00;;
23171;SDS011;11754;42.664;23.594;2023-04-15T05:53:00;10.95;;;5.40;;
23171;SDS011;11754;42.664;23.594;2023-04-15T05:55:26;13.50;;;5.80;;
23171;SDS011;11754;42.664;23.594;2023-04-15T05:57:51;8.48;;;4.20;;
23171;SDS011;11754;42.664;23.594;2023-04-15T06:00:16;10.55;;;4.90;;
23171;SDS011;11754;42.664;23.594;2023-04-15T06:02:42;11.80;;;5.70;;
23171;SDS011;11754;42.664;23.594;2023-04-15T06:05:07;8.20;;;4.40;;
23171;SDS011;11754;42.664;23.594;2023-04-15T06:07:35;9.63;;;4.28;;
23171;SDS011;11754;42.664;23.594;2023-04-15T06:10:01;14.48;;;8.40;;
23171;SDS011;11754;42.664;23.594;2023-04-15T06:12:27;10.48;;;6.70;;
23171;SDS011;11754;42.664;23.594;2023-04-15T06:15:06;12.10;;;6.15;;
23171;SDS011;11754;42.664;23.594;2023-04-15T06:17:38;9.43;;;5.30;;
23171;SDS011;11754;42.664;23.594;2023-04-15T06:20:04;12.52;;;5.25;;
23171;SDS011;11754;42.664;23.594;2023-04-15T06:22:29;11.05;;;5.53;;
23171;SDS011;11754;42.664;23.594;2023-04-15T06:24:55;10.60;;;5.38;;
23171;SDS011;11754;42.664;23.594;2023-04-15T06:27:20;16.30;;;5.30;;
23171;SDS011;11754;42.664;23.594;2023-04-15T06:29:47;12.93;;;4.95;;
23171;SDS011;11754;42.664;23.594;2023-04-15T06:32:12;11.18;;;5.25;;
23171;SDS011;11754;42.664;23.594;2023-04-15T06:34:37;7.63;;;5.20;;
23171;SDS011;11754;42.664;23.594;2023-04-15T06:37:03;8.35;;;4.68;;
23171;SDS011;11754;42.664;23.594;2023-04-15T06:39:28;9.60;;;3.95;;
23171;SDS011;11754;42.664;23.594;2023-04-15T06:41:54;7.68;;;3.70;;
23171;SDS011;11754;42.664;23.594;2023-04-15T06:44:20;5.72;;;3.40;;
23171;SDS011;11754;42.664;23.594;2023-04-15T06:46:45;10.70;;;3.88;;
23171;SDS011;11754;42.664;23.594;2023-04-15T06:49:11;8.07;;;3.90;;
23171;SDS011;11754;42.664;23.594;2023-04-15T06:51:36;8.85;;;4.38;;
23171;SDS011;11754;42.664;23.594;2023-04-15T06:54:02;7.43;;;3.60;;
23171;SDS011;11754;42.664;23.594;2023-04-15T06:56:30;6.28;;;3.45;;
23171;SDS011;11754;42.664;23.594;2023-04-15T06:58:56;7.28;;;3.55;;
23171;SDS011;11754;42.664;23.594;2023-04-15T07:01:22;5.88;;;3.28;;
23171;SDS011;11754;42.664;23.594;2023-04-15T07:03:47;8.38;;;3.40;;
23171;SDS011;11754;42.664;23.594;2023-04-15T07:06:12;8.50;;;3.95;;
23171;SDS011;11754;42.664;23.594;2023-04-15T07:08:38;6.28;;;3.72;;
23171;SDS011;11754;42.664;23.594;2023-04-15T07:11:03;5.25;;;3.13;;
23171;SDS011;11754;42.664;23.594;2023-04-15T07:13:30;6.85;;;3.25;;
23171;SDS011;11754;42.664;23.594;2023-04-15T07:15:56;9.15;;;4.18;;
23171;SDS011;11754;42.664;23.594;2023-04-15T07:18:21;7.30;;;3.85;;
23171;SDS011;11754;42.664;23.594;2023-04-15T07:20:47;6.22;;;3.22;;
23171;SDS011;11754;42.664;23.594;2023-04-15T07:23:12;7.65;;;3.33;;
23171;SDS011;11754;42.664;23.594;2023-04-15T07:25:38;8.35;;;3.00;;
23171;SDS011;11754;42.664;23.594;2023-04-15T07:28:03;6.25;;;2.40;;
23171;SDS011;11754;42.664;23.594;2023-04-15T07:30:29;5.10;;;1.63;;
23171;SDS011;11754;42.664;23.594;2023-04-15T07:32:54;6.22;;;2.33;;
23171;SDS011;11754;42.664;23.594;2023-04-15T07:35:20;6.78;;;2.20;;
23171;SDS011;11754;42.664;23.594;2023-04-15T07:37:46;8.73;;;2.13;;
23171;SDS011;11754;42.664;23.594;2023-04-15T07:40:12;6.40;;;1.95;;
23171;SDS011;11754;42.664;23.594;2023-04-15T07:42:38;7.80;;;2.40;;
23171;SDS011;11754;42.664;23.594;2023-04-15T07:45:04;7.00;;;2.10;;
23171;SDS011;11754;42.664;23.594;2023-04-15T07:47:30;8.75;;;1.90;;
23171;SDS011;11754;42.664;23.594;2023-04-15T07:49:56;8.88;;;2.00;;
23171;SDS011;11754;42.664;23.594;2023-04-15T07:52:21;7.93;;;2.00;;
23171;SDS011;11754;42.664;23.594;2023-04-15T07:54:47;5.38;;;1.70;;
23171;SDS011;11754;42.664;23.594;2023-04-15T07:57:12;7.75;;;1.80;;
23171;SDS011;11754;42.664;23.594;2023-04-15T07:59:38;3.95;;;1.90;;
23171;SDS011;11754;42.664;23.594;2023-04-15T08:02:03;4.05;;;1.70;;
23171;SDS011;11754;42.664;23.594;2023-04-15T08:04:28;6.60;;;1.75;;
23171;SDS011;11754;42.664;23.594;2023-04-15T08:06:55;10.07;;;2.03;;
23171;SDS011;11754;42.664;23.594;2023-04-15T08:09:20;7.05;;;1.85;;
23171;SDS011;11754;42.664;23.594;2023-04-15T08:11:47;3.88;;;1.60;;
23171;SDS011;11754;42.664;23.594;2023-04-15T08:14:13;5.07;;;1.70;;
23171;SDS011;11754;42.664;23.594;2023-04-15T08:16:38;5.68;;;1.77;;
23171;SDS011;11754;42.664;23.594;2023-04-15T08:19:04;5.07;;;1.60;;
23171;SDS011;11754;42.664;23.594;2023-04-15T08:21:29;5.75;;;1.20;;
23171;SDS011;11754;42.664;23.594;2023-04-15T08:23:55;5.05;;;2.08;;
23171;SDS011;11754;42.664;23.594;2023-04-15T08:26:20;10.60;;;1.88;;
23171;SDS011;11754;42.664;23.594;2023-04-15T08:28:46;4.43;;;2.70;;
23171;SDS011;11754;42.664;23.594;2023-04-15T08:31:15;5.45;;;1.90;;
23171;SDS011;11754;42.664;23.594;2023-04-15T08:33:42;4.35;;;1.55;;
23171;SDS011;11754;42.664;23.594;2023-04-15T08:36:07;5.50;;;1.50;;
23171;SDS011;11754;42.664;23.594;2023-04-15T08:38:33;5.28;;;1.50;;
23171;SDS011;11754;42.664;23.594;2023-04-15T08:40:59;6.35;;;1.30;;
23171;SDS011;11754;42.664;23.594;2023-04-15T08:43:34;6.75;;;1.48;;
23171;SDS011;11754;42.664;23.594;2023-04-15T08:46:03;4.47;;;1.38;;
23171;SDS011;11754;42.664;23.594;2023-04-15T08:48:31;4.07;;;1.40;;
23171;SDS011;11754;42.664;23.594;2023-04-15T08:50:57;4.88;;;1.60;;
23171;SDS011;11754;42.664;23.594;2023-04-15T08:53:24;3.20;;;1.27;;
23171;SDS011;11754;42.664;23.594;2023-04-15T08:55:51;7.28;;;1.23;;
23171;SDS011;11754;42.664;23.594;2023-04-15T08:58:18;7.95;;;2.42;;
23171;SDS011;11754;42.664;23.594;2023-04-15T09:00:43;5.10;;;1.88;;
23171;SDS011;11754;42.664;23.594;2023-04-15T09:03:09;5.63;;;1.17;;
23171;SDS011;11754;42.664;23.594;2023-04-15T09:05:35;6.50;;;1.58;;
23171;SDS011;11754;42.664;23.594;2023-04-15T09:08:01;6.10;;;1.13;;
23171;SDS011;11754;42.664;23.594;2023-04-15T09:10:28;3.35;;;1.20;;
23171;SDS011;11754;42.664;23.594;2023-04-15T09:12:54;4.35;;;2.00;;
23171;SDS011;11754;42.664;23.594;2023-04-15T09:15:20;2.60;;;0.90;;
23171;SDS011;11754;42.664;23.594;2023-04-15T09:17:46;3.33;;;1.08;;
23171;SDS011;11754;42.664;23.594;2023-04-15T09:20:13;5.13;;;1.60;;
23171;SDS011;11754;42.664;23.594;2023-04-15T09:22:40;3.75;;;1.90;;
23171;SDS011;11754;42.664;23.594;2023-04-15T09:27:50;4.13;;;1.40;;
23171;SDS011;11754;42.664;23.594;2023-04-15T09:30:17;3.17;;;1.05;;
23171;SDS011;11754;42.664;23.594;2023-04-15T09:32:55;4.50;;;2.13;;
23171;SDS011;11754;42.664;23.594;2023-04-15T09:35:23;3.05;;;1.15;;
23171;SDS011;11754;42.664;23.594;2023-04-15T09:37:50;2.88;;;1.00;;
23171;SDS011;11754;42.664;23.594;2023-04-15T09:43:08;2.87;;;1.00;;
23171;SDS011;11754;42.664;23.594;2023-04-15T09:45:36;3.13;;;0.85;;
23171;SDS011;11754;42.664;23.594;2023-04-15T09:48:15;2.47;;;1.00;;
23171;SDS011;11754;42.664;23.594;2023-04-15T09:50:42;3.22;;;1.00;;
23171;SDS011;11754;42.664;23.594;2023-04-15T09:53:09;3.08;;;0.75;;
23171;SDS011;11754;42.664;23.594;2023-04-15T09:55:37;3.88;;;1.08;;
23171;SDS011;11754;42.664;23.594;2023-04-15T09:58:07;3.83;;;1.10;;
23171;SDS011;11754;42.664;23.594;2023-04-15T10:00:33;4.43;;;1.13;;
23171;SDS011;11754;42.664;23.594;2023-04-15T10:03:00;3.65;;;0.93;;
23171;SDS011;11754;42.664;23.594;2023-04-15T10:05:26;2.83;;;0.90;;
23171;SDS011;11754;42.664;23.594;2023-04-15T10:07:51;5.30;;;2.15;;
23171;SDS011;11754;42.664;23.594;2023-04-15T10:10:17;3.65;;;0.95;;
23171;SDS011;11754;42.664;23.594;2023-04-15T10:12:43;3.88;;;1.00;;
23171;SDS011;11754;42.664;23.594;2023-04-15T10:15:12;4.22;;;1.10;;
23171;SDS011;11754;42.664;23.594;2023-04-15T10:17:41;3.70;;;1.50;;
23171;SDS011;11754;42.664;23.594;2023-04-15T10:20:08;4.63;;;1.10;;
23171;SDS011;11754;42.664;23.594;2023-04-15T10:22:36;7.18;;;1.00;;
23171;SDS011;11754;42.664;23.594;2023-04-15T10:25:02;3.30;;;0.90;;
23171;SDS011;11754;42.664;23.594;2023-04-15T10:27:28;6.32;;;1.70;;
23171;SDS011;11754;42.664;23.594;2023-04-15T10:29:54;4.43;;;1.20;;
23171;SDS011;11754;42.664;23.594;2023-04-15T10:32:20;2.03;;;0.90;;
23171;SDS011;11754;42.664;23.594;2023-04-15T10:34:48;2.13;;;0.80;;
23171;SDS011;11754;42.664;23.594;2023-04-15T10:37:19;3.97;;;0.90;;
23171;SDS011;11754;42.664;23.594;2023-04-15T10:42:53;6.60;;;3.28;;
23171;SDS011;11754;42.664;23.594;2023-04-15T10:45:20;6.18;;;2.60;;
23171;SDS011;11754;42.664;23.594;2023-04-15T10:47:50;3.80;;;1.30;;
23171;SDS011;11754;42.664;23.594;2023-04-15T10:50:17;4.10;;;1.27;;
23171;SDS011;11754;42.664;23.594;2023-04-15T10:52:43;2.92;;;1.17;;
23171;SDS011;11754;42.664;23.594;2023-04-15T10:57:37;3.88;;;1.05;;
23171;SDS011;11754;42.664;23.594;2023-04-15T11:02:40;3.50;;;0.90;;
23171;SDS011;11754;42.664;23.594;2023-04-15T11:08:51;3.83;;;0.90;;
23171;SDS011;11754;42.664;23.594;2023-04-15T11:11:17;4.05;;;0.80;;
23171;SDS011;11754;42.664;23.594;2023-04-15T11:13:46;3.67;;;1.00;;
23171;SDS011;11754;42.664;23.594;2023-04-15T11:16:16;4.88;;;0.77;;
23171;SDS011;11754;42.664;23.594;2023-04-15T11:18:42;6.40;;;1.30;;
23171;SDS011;11754;42.664;23.594;2023-04-15T11:21:19;3.40;;;1.25;;
23171;SDS011;11754;42.664;23.594;2023-04-15T11:23:49;7.85;;;4.22;;
23171;SDS011;11754;42.664;23.594;2023-04-15T11:26:15;4.43;;;1.08;;
23171;SDS011;11754;42.664;23.594;2023-04-15T11:28:43;6.20;;;2.92;;
23171;SDS011;11754;42.664;23.594;2023-04-15T11:31:14;2.25;;;0.80;;
23171;SDS011;11754;42.664;23.594;2023-04-15T11:33:57;4.53;;;0.80;;
23171;SDS011;11754;42.664;23.594;2023-04-15T11:36:27;4.63;;;1.00;;
23171;SDS011;11754;42.664;23.594;2023-04-15T11:38:53;2.60;;;0.80;;
23171;SDS011;11754;42.664;23.594;2023-04-15T11:41:20;3.80;;;0.80;;
23171;SDS011;11754;42.664;23.594;2023-04-15T11:43:47;3.88;;;1.10;;
23171;SDS011;11754;42.664;23.594;2023-04-15T11:46:12;3.88;;;1.20;;
23171;SDS011;11754;42.664;23.594;2023-04-15T11:48:40;2.13;;;0.80;;
23171;SDS011;11754;42.664;23.594;2023-04-15T11:51:08;3.45;;;0.90;;
23171;SDS011;11754;42.664;23.594;2023-04-15T11:53:43;3.95;;;0.80;;
23171;SDS011;11754;42.664;23.594;2023-04-15T11:56:20;8.82;;;1.00;;
23171;SDS011;11754;42.664;23.594;2023-04-15T11:58:48;5.75;;;0.93;;
23171;SDS011;11754;42.664;23.594;2023-04-15T12:01:16;4.32;;;0.80;;
23171;SDS011;11754;42.664;23.594;2023-04-15T12:03:44;2.17;;;0.85;;
23171;SDS011;11754;42.664;23.594;2023-04-15T12:13:52;3.53;;;1.00;;
23171;SDS011;11754;42.664;23.594;2023-04-15T12:16:18;3.83;;;0.93;;
23171;SDS011;11754;42.664;23.594;2023-04-15T12:18:45;2.55;;;0.98;;
23171;SDS011;11754;42.664;23.594;2023-04-15T12:21:11;2.50;;;0.95;;
23171;SDS011;11754;42.664;23.594;2023-04-15T12:23:38;3.78;;;0.90;;
23171;SDS011;11754;42.664;23.594;2023-04-15T12:26:04;1.80;;;0.80;;
23171;SDS011;11754;42.664;23.594;2023-04-15T12:28:33;2.10;;;1.10;;
23171;SDS011;11754;42.664;23.594;2023-04-15T12:31:11;2.13;;;0.70;;
23171;SDS011;11754;42.664;23.594;2023-04-15T12:33:37;7.18;;;2.78;;
23171;SDS011;11754;42.664;23.594;2023-04-15T12:36:03;3.22;;;1.15;;
23171;SDS011;11754;42.664;23.594;2023-04-15T12:38:29;3.00;;;0.80;;
23171;SDS011;11754;42.664;23.594;2023-04-15T12:40:57;2.20;;;0.80;;
23171;SDS011;11754;42.664;23.594;2023-04-15T12:43:23;1.98;;;0.90;;
23171;SDS011;11754;42.664;23.594;2023-04-15T12:45:49;2.28;;;0.70;;
23171;SDS011;11754;42.664;23.594;2023-04-15T12:48:15;3.13;;;1.20;;
23171;SDS011;11754;42.664;23.594;2023-04-15T12:50:40;1.58;;;0.60;;
23171;SDS011;11754;42.664;23.594;2023-04-15T12:53:06;3.30;;;0.70;;
23171;SDS011;11754;42.664;23.594;2023-04-15T12:55:31;2.53;;;0.70;;
23171;SDS011;11754;42.664;23.594;2023-04-15T12:57:57;2.33;;;0.77;;
23171;SDS011;11754;42.664;23.594;2023-04-15T13:00:22;1.92;;;0.75;;
23171;SDS011;11754;42.664;23.594;2023-04-15T13:02:47;2.55;;;0.77;;
23171;SDS011;11754;42.664;23.594;2023-04-15T13:05:13;3.75;;;0.80;;
23171;SDS011;11754;42.664;23.594;2023-04-15T13:07:39;2.20;;;0.70;;
23171;SDS011;11754;42.664;23.594;2023-04-15T13:10:06;3.55;;;1.00;;
23171;SDS011;11754;42.664;23.594;2023-04-15T13:12:31;5.25;;;1.05;;
23171;SDS011;11754;42.664;23.594;2023-04-15T13:15:00;3.05;;;0.70;;
23171;SDS011;11754;42.664;23.594;2023-04-15T13:17:26;2.75;;;1.08;;
23171;SDS011;11754;42.664;23.594;2023-04-15T13:19:52;5.15;;;1.92;;
23171;SDS011;11754;42.664;23.594;2023-04-15T13:22:17;4.40;;;2.00;;
23171;SDS011;11754;42.664;23.594;2023-04-15T13:24:43;2.85;;;0.80;;
23171;SDS011;11754;42.664;23.594;2023-04-15T13:27:08;2.83;;;1.30;;
23171;SDS011;11754;42.664;23.594;2023-04-15T13:29:33;1.98;;;0.70;;
23171;SDS011;11754;42.664;23.594;2023-04-15T13:31:59;3.75;;;1.00;;
23171;SDS011;11754;42.664;23.594;2023-04-15T13:34:25;6.05;;;1.20;;
23171;SDS011;11754;42.664;23.594;2023-04-15T13:36:50;3.17;;;0.95;;
23171;SDS011;11754;42.664;23.594;2023-04-15T13:39:16;3.90;;;1.40;;
23171;SDS011;11754;42.664;23.594;2023-04-15T13:41:41;3.60;;;1.00;;
23171;SDS011;11754;42.664;23.594;2023-04-15T13:44:07;5.50;;;1.13;;
23171;SDS011;11754;42.664;23.594;2023-04-15T13:46:32;2.65;;;0.80;;
23171;SDS011;11754;42.664;23.594;2023-04-15T13:48:57;2.20;;;0.77;;
23171;SDS011;11754;42.664;23.594;2023-04-15T13:51:23;4.40;;;0.63;;
23171;SDS011;11754;42.664;23.594;2023-04-15T13:53:48;1.80;;;0.70;;
23171;SDS011;11754;42.664;23.594;2023-04-15T13:56:13;3.17;;;0.77;;
23171;SDS011;11754;42.664;23.594;2023-04-15T13:58:39;3.67;;;1.98;;
23171;SDS011;11754;42.664;23.594;2023-04-15T14:01:05;7.85;;;5.30;;
23171;SDS011;11754;42.664;23.594;2023-04-15T14:03:31;5.55;;;3.90;;
23171;SDS011;11754;42.664;23.594;2023-04-15T14:05:56;2.83;;;0.90;;
23171;SDS011;11754;42.664;23.594;2023-04-15T14:08:22;2.63;;;0.88;;
23171;SDS011;11754;42.664;23.594;2023-04-15T14:10:49;3.95;;;0.70;;
23171;SDS011;11754;42.664;23.594;2023-04-15T14:13:14;1.95;;;0.68;;
23171;SDS011;11754;42.664;23.594;2023-04-15T14:15:40;3.67;;;0.70;;
23171;SDS011;11754;42.664;23.594;2023-04-15T14:18:06;2.70;;;0.60;;
23171;SDS011;11754;42.664;23.594;2023-04-15T14:20:31;2.30;;;0.70;;
23171;SDS011;11754;42.664;23.594;2023-04-15T14:22:57;1.33;;;0.50;;
23171;SDS011;11754;42.664;23.594;2023-04-15T14:25:22;2.92;;;0.80;;
23171;SDS011;11754;42.664;23.594;2023-04-15T14:27:47;1.80;;;0.50;;
23171;SDS011;11754;42.664;23.594;2023-04-15T14:30:13;2.95;;;0.80;;
23171;SDS011;11754;42.664;23.594;2023-04-15T14:32:38;2.20;;;0.70;;
23171;SDS011;11754;42.664;23.594;2023-04-15T14:35:04;2.65;;;0.73;;
23171;SDS011;11754;42.664;23.594;2023-04-15T14:37:30;2.80;;;0.70;;
23171;SDS011;11754;42.664;23.594;2023-04-15T14:39:55;3.33;;;0.70;;
23171;SDS011;11754;42.664;23.594;2023-04-15T14:42:20;2.55;;;0.93;;
23171;SDS011;11754;42.664;23.594;2023-04-15T14:44:46;3.55;;;1.50;;
23171;SDS011;11754;42.664;23.594;2023-04-15T14:47:11;1.90;;;0.65;;
23171;SDS011;11754;42.664;23.594;2023-04-15T14:49:37;2.72;;;0.63;;